Time;durP1;ratioP1;P1;durP2;ratioP2;P2;SDS_P1;SDS_P2;PMS_P1;PMS_P2;Temp;Humidity;BMP_temperature;BMP_pressure;BME280_temperature;BME280_humidity;BME280_pressure;Samples;Min_cycle;Max_cycle;Signal;HPM_P1;HPM_P2
2021/04/29 00:01:45;;;;;;;6.90;4.07;;;;;;;10.28;86.08;97114.50;4986733;28;20030;-73
2021/04/29 00:04:15;;;;;;;6.10;4.18;;;;;;;10.20;86.08;97110.59;4988140;28;20022;-72
2021/04/29 00:06:40;;;;;;;6.88;4.30;;;;;;;10.20;86.54;97115.81;4990305;28;20492;-73
2021/04/29 00:09:06;;;;;;;5.97;4.10;;;;;;;10.14;86.81;97097.88;4990012;28;20049;-73
2021/04/29 00:11:33;;;;;;;4.95;3.67;;;;;;;10.13;86.80;97103.19;4988350;28;20388;-73
2021/04/29 00:13:59;;;;;;;8.02;3.88;;;;;;;10.13;86.93;97109.25;4985904;28;20117;-73
2021/04/29 00:16:25;;;;;;;7.13;3.92;;;;;;;10.10;86.82;97103.34;4989953;28;20084;-73
2021/04/29 00:18:50;;;;;;;7.03;4.10;;;;;;;10.05;86.96;97100.19;4985538;28;20034;-73
2021/04/29 00:21:16;;;;;;;5.97;4.10;;;;;;;9.98;87.34;97104.09;4995213;28;20034;-73
2021/04/29 00:23:42;;;;;;;6.47;4.10;;;;;;;9.97;87.33;97105.88;4989722;28;20392;-73
2021/04/29 00:26:07;;;;;;;4.88;3.65;;;;;;;9.94;87.32;97100.81;4990377;28;20485;-74
2021/04/29 00:28:33;;;;;;;6.88;4.25;;;;;;;9.94;87.25;97107.81;4988689;28;20033;-74
2021/04/29 00:30:58;;;;;;;4.88;3.88;;;;;;;9.97;87.65;97105.03;4991227;28;20022;-74
2021/04/29 00:33:24;;;;;;;5.53;4.07;;;;;;;9.95;87.75;97105.09;4988642;28;20034;-73
2021/04/29 00:35:49;;;;;;;6.10;4.25;;;;;;;9.96;87.36;97101.56;4991450;28;20535;-74
2021/04/29 00:38:16;;;;;;;5.88;4.03;;;;;;;9.99;87.18;97105.78;4990075;28;20389;-73
2021/04/29 00:40:42;;;;;;;7.00;4.47;;;;;;;9.99;87.07;97105.78;4990941;28;20022;-73
2021/04/29 00:43:12;;;;;;;5.88;4.15;;;;;;;10.01;86.89;97106.53;4988899;28;20084;-74
2021/04/29 00:45:41;;;;;;;7.03;3.65;;;;;;;10.00;87.37;97108.28;4988923;28;20094;-73
2021/04/29 00:48:06;;;;;;;4.80;3.78;;;;;;;10.02;86.35;97106.44;4987260;28;20030;-73
2021/04/29 00:50:32;;;;;;;5.45;3.67;;;;;;;10.01;86.78;97104.75;4988128;28;20031;-73
2021/04/29 00:52:57;;;;;;;4.35;3.45;;;;;;;10.04;86.99;97109.81;4990183;28;20563;-74
2021/04/29 00:55:26;;;;;;;5.03;3.30;;;;;;;10.04;87.26;97111.56;4990157;28;20065;-72
2021/04/29 00:57:51;;;;;;;5.57;3.55;;;;;;;10.03;87.16;97110.72;4989624;28;20058;-72
2021/04/29 01:00:17;;;;;;;5.63;3.67;;;;;;;10.06;87.40;97107.94;4988589;28;20421;-72
2021/04/29 01:02:52;;;;;;;4.80;3.85;;;;;;;10.13;87.60;97118.84;4989558;28;20030;-72
2021/04/29 01:05:29;;;;;;;6.07;4.47;;;;;;;10.16;87.92;97113.44;4988965;28;20026;-73
2021/04/29 01:08:01;;;;;;;5.18;3.72;;;;;;;10.18;88.30;97117.69;4990969;28;20381;-73
2021/04/29 01:10:51;;;;;;;6.13;4.07;;;;;;;10.20;88.19;97121.06;4989023;28;20485;-73
2021/04/29 01:13:22;;;;;;;5.68;3.92;;;;;;;10.20;88.59;97115.00;4988597;28;20111;-72
2021/04/29 01:15:49;;;;;;;4.60;3.78;;;;;;;10.20;88.33;97110.59;4974144;28;20493;-73
2021/04/29 01:18:15;;;;;;;5.70;4.00;;;;;;;10.14;88.00;97112.69;4972179;28;20420;-73
2021/04/29 01:21:02;;;;;;;6.40;4.03;;;;;;;10.18;87.70;97119.44;4988873;28;20436;-73
2021/04/29 01:23:40;;;;;;;5.25;4.10;;;;;;;10.23;87.36;97120.03;4971711;28;20039;-72
2021/04/29 01:26:27;;;;;;;4.65;3.33;;;;;;;10.26;87.33;97119.00;4987717;28;20483;-72
2021/04/29 01:28:53;;;;;;;4.80;3.90;;;;;;;10.32;86.83;97119.47;4972101;28;20053;-73
2021/04/29 01:31:24;;;;;;;5.23;3.80;;;;;;;10.34;86.61;97125.44;4988745;28;20481;-73
2021/04/29 01:33:51;;;;;;;4.90;3.50;;;;;;;10.39;86.30;97127.78;4989083;28;20034;-73
2021/04/29 01:36:18;;;;;;;4.18;3.15;;;;;;;10.39;86.37;97128.59;4987032;28;20045;-73
2021/04/29 01:38:44;;;;;;;8.07;3.90;;;;;;;10.43;86.09;97127.50;4990028;28;20492;-73
2021/04/29 01:41:09;;;;;;;4.82;3.17;;;;;;;10.45;85.86;97125.63;4989789;28;20026;-72
2021/04/29 01:43:36;;;;;;;6.18;3.80;;;;;;;10.44;86.14;97134.41;4989747;28;20046;-73
2021/04/29 01:46:02;;;;;;;5.75;3.80;;;;;;;10.48;86.70;97129.84;4996468;28;20563;-73
2021/04/29 01:48:29;;;;;;;4.33;3.47;;;;;;;10.54;87.07;97135.50;4999818;28;20069;-73
2021/04/29 01:50:56;;;;;;;4.65;3.60;;;;;;;10.55;87.63;97137.19;4973664;28;20445;-74
2021/04/29 01:53:25;;;;;;;7.05;3.88;;;;;;;10.54;88.40;97135.50;4988975;28;20291;-73
2021/04/29 01:55:51;;;;;;;5.35;3.60;;;;;;;10.56;88.13;97143.25;4986631;28;20033;-74
2021/04/29 01:58:17;;;;;;;6.30;4.47;;;;;;;10.45;88.07;97141.31;4986384;28;20030;-74
2021/04/29 02:00:42;;;;;;;5.47;3.72;;;;;;;10.51;88.40;97145.34;4989901;28;20026;-73
2021/04/29 02:03:08;;;;;;;4.57;3.72;;;;;;;10.54;88.93;97145.97;4989290;28;20040;-73
2021/04/29 02:05:33;;;;;;;5.60;4.00;;;;;;;10.54;88.51;97145.97;4989770;28;20125;-74
2021/04/29 02:07:59;;;;;;;5.50;3.67;;;;;;;10.61;89.04;97151.69;4989082;28;20034;-72
2021/04/29 02:10:25;;;;;;;4.53;3.33;;;;;;;10.64;88.50;97151.50;4989353;28;20472;-73
2021/04/29 02:12:53;;;;;;;4.78;3.22;;;;;;;10.64;88.32;97151.50;4988188;28;20395;-73
2021/04/29 02:15:24;;;;;;;4.57;3.55;;;;;;;10.66;88.79;97152.25;4989282;28;20392;-73
2021/04/29 02:17:57;;;;;;;4.57;3.58;;;;;;;10.67;88.86;97151.31;4987713;28;20503;-73
2021/04/29 02:20:24;;;;;;;4.75;3.70;;;;;;;10.64;89.38;97148.03;4983057;28;20031;-73
2021/04/29 02:22:52;;;;;;;5.03;3.40;;;;;;;10.63;89.72;97162.03;4982254;28;20038;-74
2021/04/29 02:25:26;;;;;;;8.30;3.67;;;;;;;10.60;89.43;97160.44;4987343;28;20255;-73
2021/04/29 02:27:55;;;;;;;6.05;3.53;;;;;;;10.63;90.04;97162.03;4987929;28;20489;-72
2021/04/29 02:30:23;;;;;;;4.40;3.22;;;;;;;10.66;89.86;97156.63;4987622;28;20076;-73
2021/04/29 02:32:49;;;;;;;4.90;3.45;;;;;;;10.69;90.06;97159.06;4988669;28;20481;-73
2021/04/29 02:35:17;;;;;;;4.53;3.53;;;;;;;10.66;89.92;97160.09;4987799;28;20065;-74
2021/04/29 02:37:44;;;;;;;6.10;3.50;;;;;;;10.71;90.01;97163.25;4988215;28;20040;-74
2021/04/29 02:40:11;;;;;;;;;;;;;;;10.72;89.33;97161.47;5000351;28;20484;-73
2021/04/29 02:42:38;;;;;;;4.35;3.20;;;;;;;10.75;89.11;97159.50;4987797;28;19920;-73
2021/04/29 02:45:07;;;;;;;4.95;3.45;;;;;;;10.77;88.93;97160.25;4988578;28;20125;-72
2021/04/29 02:47:37;;;;;;;4.47;3.42;;;;;;;10.82;89.32;97165.22;4988368;28;20041;-73
2021/04/29 02:50:03;;;;;;;5.43;3.78;;;;;;;10.81;89.10;97174.00;4988710;28;20065;-72
2021/04/29 02:52:31;;;;;;;7.18;3.95;;;;;;;10.81;89.15;97174.84;4987006;28;20069;-72
2021/04/29 02:54:57;;;;;;;5.47;4.10;;;;;;;10.73;88.94;97189.31;4989261;28;20034;-74
2021/04/29 02:57:25;;;;;;;5.55;4.30;;;;;;;10.79;89.40;97188.94;4986163;28;20030;-76
2021/04/29 02:59:51;;;;;;;6.25;4.60;;;;;;;10.61;90.02;97183.06;4988391;28;20096;-75
2021/04/29 03:02:16;;;;;;;6.63;5.20;;;;;;;10.55;90.32;97194.69;4986409;28;20033;-75
2021/04/29 03:04:43;;;;;;;6.90;5.38;;;;;;;10.52;90.77;97191.47;4987290;28;20378;-76
2021/04/29 03:07:10;;;;;;;6.82;5.70;;;;;;;10.55;90.81;97199.94;4986728;28;20030;-75
2021/04/29 03:09:36;;;;;;;7.05;5.78;;;;;;;10.54;91.08;97203.47;4987868;28;20113;-74
2021/04/29 03:12:02;;;;;;;7.50;5.80;;;;;;;10.56;91.59;97212.06;4986572;28;20117;-74
2021/04/29 03:14:27;;;;;;;7.15;5.53;;;;;;;10.57;91.63;97210.31;4988579;28;20121;-74
2021/04/29 03:16:53;;;;;;;9.27;5.80;;;;;;;10.60;91.50;97206.66;4988070;28;20041;-73
2021/04/29 03:19:18;;;;;;;7.50;5.75;;;;;;;10.58;91.53;97230.28;4989374;28;20034;-74
2021/04/29 03:21:43;;;;;;;7.32;5.93;;;;;;;10.57;92.04;97224.22;4987799;28;20033;-73
2021/04/29 03:24:09;;;;;;;5.82;5.03;;;;;;;10.58;92.13;97238.13;4992376;28;20038;-73
2021/04/29 03:26:35;;;;;;;5.35;4.45;;;;;;;10.63;91.83;97243.94;4991132;28;20374;-73
2021/04/29 03:29:01;;;;;;;6.07;3.90;;;;;;;10.72;91.73;97250.38;4993054;28;20026;-73
2021/04/29 03:31:26;;;;;;;5.20;3.80;;;;;;;10.58;91.45;97259.03;4991679;28;20062;-73
2021/04/29 03:33:52;;;;;;;4.80;3.30;;;;;;;10.58;91.23;97256.44;4991142;28;20037;-73
2021/04/29 03:36:17;;;;;;;5.40;3.15;;;;;;;10.56;91.49;97266.13;4991201;28;20253;-73
2021/04/29 03:38:43;;;;;;;4.93;3.30;;;;;;;10.51;91.29;97265.56;4991501;28;20503;-73
2021/04/29 03:41:11;;;;;;;4.22;3.53;;;;;;;10.45;91.08;97273.75;4991278;28;20058;-73
2021/04/29 03:43:36;;;;;;;5.03;4.10;;;;;;;10.44;90.77;97280.75;4990656;28;20034;-74
2021/04/29 03:46:02;;;;;;;4.68;4.03;;;;;;;10.35;90.57;97281.31;4991288;28;20396;-74
2021/04/29 03:48:27;;;;;;;6.22;4.45;;;;;;;10.36;90.73;97283.00;4992101;28;20558;-73
2021/04/29 03:50:53;;;;;;;5.05;4.20;;;;;;;10.29;90.56;97293.88;4989751;28;20049;-73
2021/04/29 03:53:18;;;;;;;4.70;3.95;;;;;;;10.20;90.32;97293.47;4991202;28;20031;-73
2021/04/29 03:55:49;;;;;;;5.65;4.50;;;;;;;10.03;90.71;97305.78;4988953;28;20034;-75
2021/04/29 03:58:14;;;;;;;5.18;4.22;;;;;;;10.06;90.60;97296.00;4993120;28;20451;-75
2021/04/29 04:00:40;;;;;;;5.57;3.90;;;;;;;9.99;91.08;97312.94;4985932;28;20476;-74
2021/04/29 04:03:05;;;;;;;4.30;3.47;;;;;;;9.92;90.96;97316.00;4982958;28;20065;-74
2021/04/29 04:05:31;;;;;;;4.80;3.50;;;;;;;9.97;90.56;97316.56;4989378;28;20026;-74
2021/04/29 04:07:56;;;;;;;4.60;3.45;;;;;;;9.87;90.52;97331.91;4990086;28;20121;-75
2021/04/29 04:10:24;;;;;;;4.57;3.45;;;;;;;9.72;90.68;97330.13;4989774;28;20037;-73
2021/04/29 04:12:51;;;;;;;;;;;;;;;9.75;90.30;97337.81;4990784;28;20030;-74
2021/04/29 04:15:19;;;;;;;5.57;3.72;;;;;;;9.76;90.51;97332.50;4990941;28;19922;-74
2021/04/29 04:17:44;;;;;;;4.60;3.45;;;;;;;9.68;90.59;97339.91;4982923;28;20061;-74
2021/04/29 04:20:10;;;;;;;3.53;3.03;;;;;;;9.71;90.83;97341.50;4991072;28;20041;-73
2021/04/29 04:22:36;;;;;;;3.95;3.30;;;;;;;9.64;91.09;97342.75;4973063;28;20081;-74
2021/04/29 04:25:03;;;;;;;3.97;3.38;;;;;;;9.53;90.89;97349.41;4986790;28;20034;-74
2021/04/29 04:27:33;;;;;;;4.43;2.70;;;;;;;9.51;91.14;97346.03;4986355;28;20113;-75
2021/04/29 04:30:02;;;;;;;3.50;2.80;;;;;;;9.51;91.16;97343.41;4990917;28;20113;-76
2021/04/29 04:32:29;;;;;;;4.00;2.88;;;;;;;9.55;90.97;97343.25;4992029;28;20034;-76
2021/04/29 04:34:54;;;;;;;;;;;;;;;9.53;91.17;97359.00;4990564;28;20042;-76
2021/04/29 04:37:20;;;;;;;3.42;2.70;;;;;;;9.44;91.11;97360.34;4990683;28;19927;-75
2021/04/29 04:39:45;;;;;;;4.25;3.10;;;;;;;9.32;91.60;97360.16;4991004;28;20022;-76
2021/04/29 04:42:11;;;;;;;5.72;3.17;;;;;;;9.25;91.83;97367.44;4992170;28;20022;-75
2021/04/29 04:44:36;;;;;;;4.10;3.40;;;;;;;9.30;91.96;97372.41;4989208;28;20469;-75
2021/04/29 04:47:02;;;;;;;4.05;2.97;;;;;;;9.23;92.66;97371.03;4990154;28;20018;-75
2021/04/29 04:49:27;;;;;;;4.15;3.13;;;;;;;9.19;92.78;97370.34;4991005;28;20133;-76
2021/04/29 04:51:53;;;;;;;5.53;3.28;;;;;;;9.25;92.88;97367.44;4989310;28;20487;-76
2021/04/29 04:54:22;;;;;;;3.97;2.90;;;;;;;9.11;93.36;97367.31;4990458;28;20029;-76
2021/04/29 04:56:47;;;;;;;3.95;2.97;;;;;;;9.00;93.63;97365.25;4990053;28;20030;-76
2021/04/29 04:59:13;;;;;;;4.57;3.20;;;;;;;8.91;93.83;97372.69;4991559;28;20030;-77
2021/04/29 05:01:39;;;;;;;3.78;2.97;;;;;;;8.85;93.92;97376.47;4989791;28;20079;-76
2021/04/29 05:04:06;;;;;;;4.18;3.20;;;;;;;8.82;94.11;97380.06;4982690;28;20105;-76
2021/04/29 05:06:34;;;;;;;4.30;3.38;;;;;;;8.82;94.27;97379.22;4981807;28;20038;-75
2021/04/29 05:09:00;;;;;;;4.38;3.28;;;;;;;8.87;94.38;97381.56;4975216;28;20042;-76
2021/04/29 05:11:27;;;;;;;3.90;3.30;;;;;;;8.88;94.46;97381.50;4983033;28;20089;-75
2021/04/29 05:13:53;;;;;;;5.20;3.25;;;;;;;8.84;94.50;97393.03;4997617;28;20054;-75
2021/04/29 05:16:21;;;;;;;4.22;3.45;;;;;;;8.89;94.85;97406.66;5004466;28;20010;-75
2021/04/29 05:18:46;;;;;;;4.40;3.42;;;;;;;9.00;95.14;97396.56;4993565;28;20088;-76
2021/04/29 05:21:12;;;;;;;5.22;3.85;;;;;;;9.08;94.72;97404.81;4991979;28;20370;-75
2021/04/29 05:23:37;;;;;;;6.90;3.60;;;;;;;9.24;94.99;97410.09;4990541;28;20444;-76
2021/04/29 05:26:02;;;;;;;5.30;4.00;;;;;;;9.30;95.24;97411.56;4987994;28;20034;-77
2021/04/29 05:28:28;;;;;;;4.50;3.55;;;;;;;9.38;95.19;97412.81;5005219;28;20034;-76
2021/04/29 05:30:53;;;;;;;5.47;3.95;;;;;;;9.39;95.07;97405.84;4989026;28;20462;-77
2021/04/29 05:33:19;;;;;;;5.78;3.60;;;;;;;9.48;95.21;97407.97;4988083;28;20026;-77
2021/04/29 05:35:44;;;;;;;4.88;3.45;;;;;;;9.94;95.61;97401.13;4981818;28;20029;-78
2021/04/29 05:38:09;;;;;;;4.30;3.58;;;;;;;10.02;95.55;97409.41;4988281;28;20030;-77
2021/04/29 05:40:35;;;;;;;6.10;3.28;;;;;;;9.70;95.52;97418.97;4989996;28;20464;-77
2021/04/29 05:43:00;;;;;;;4.25;3.50;;;;;;;9.80;95.66;97414.09;4988342;28;20034;-76
2021/04/29 05:45:26;;;;;;;3.80;3.13;;;;;;;9.80;96.15;97416.69;4986732;28;20022;-77
2021/04/29 05:47:51;;;;;;;5.60;3.53;;;;;;;9.86;96.22;97411.16;4990474;28;20022;-71
2021/04/29 05:50:17;;;;;;;3.92;3.25;;;;;;;9.77;96.25;97404.69;4987714;28;20037;-69
2021/04/29 05:52:44;;;;;;;4.65;3.20;;;;;;;9.86;96.72;97398.97;4985358;28;20085;-70
2021/04/29 05:55:10;;;;;;;;;;;;;;;9.92;96.50;97395.19;4980001;28;20038;-69
2021/04/29 05:57:35;;;;;;;4.82;3.42;;;;;;;9.97;96.72;97397.53;4986230;28;19918;-70
2021/04/29 06:00:02;;;;;;;3.83;3.13;;;;;;;9.93;97.14;97402.06;4975309;28;20034;-70
2021/04/29 06:02:27;;;;;;;4.32;3.03;;;;;;;9.97;97.49;97400.13;4981182;28;20034;-70
2021/04/29 06:04:53;;;;;;;6.38;3.20;;;;;;;9.66;97.35;97404.38;4979838;28;20076;-70
2021/04/29 06:07:18;;;;;;;4.22;3.08;;;;;;;9.62;97.43;97407.25;4981037;28;20558;-69
2021/04/29 06:09:44;;;;;;;3.25;2.80;;;;;;;9.49;97.31;97409.66;4985669;28;20511;-70
2021/04/29 06:12:09;;;;;;;3.55;2.78;;;;;;;9.70;97.72;97418.13;4977505;28;20039;-70
2021/04/29 06:14:36;;;;;;;3.92;2.83;;;;;;;9.83;98.14;97409.56;4974354;28;20273;-70
2021/04/29 06:17:02;;;;;;;4.05;2.80;;;;;;;9.93;98.28;97411.69;4986280;28;20037;-70
2021/04/29 06:19:27;;;;;;;4.47;3.38;;;;;;;10.09;97.98;97409.91;4988341;28;20026;-69
2021/04/29 06:21:53;;;;;;;5.05;2.70;;;;;;;10.19;98.61;97414.59;4973539;28;20022;-69
2021/04/29 06:24:18;;;;;;;3.45;2.90;;;;;;;10.03;98.63;97415.47;4983697;28;20029;-69
2021/04/29 06:26:44;;;;;;;3.85;2.70;;;;;;;10.15;98.37;97414.81;4978822;28;20424;-69
2021/04/29 06:29:10;;;;;;;3.45;2.50;;;;;;;10.14;98.89;97416.56;4982143;28;20030;-69
2021/04/29 06:31:38;;;;;;;2.90;2.30;;;;;;;10.21;99.24;97428.41;4983020;28;20084;-71
2021/04/29 06:34:04;;;;;;;3.42;2.33;;;;;;;10.20;99.06;97429.34;4983062;28;20056;-70
2021/04/29 06:36:30;;;;;;;3.72;2.67;;;;;;;10.23;99.30;97432.72;4982092;28;20179;-70
2021/04/29 06:38:56;;;;;;;3.17;2.55;;;;;;;10.16;99.68;97427.78;4983319;28;20065;-70
2021/04/29 06:41:21;;;;;;;4.38;2.88;;;;;;;10.33;99.35;97415.59;4981469;28;20078;-70
2021/04/29 06:43:47;;;;;;;3.65;2.92;;;;;;;10.69;99.41;97417.91;4986271;28;20034;-70
2021/04/29 06:46:12;;;;;;;4.30;2.92;;;;;;;10.75;99.64;97417.56;4983471;28;20018;-70
2021/04/29 06:48:38;;;;;;;5.43;3.85;;;;;;;10.72;99.79;97413.34;4986001;28;20522;-70
2021/04/29 06:51:07;;;;;;;2.95;2.50;;;;;;;10.51;99.26;97425.03;4989268;28;20149;-69
2021/04/29 06:53:33;;;;;;;3.80;2.58;;;;;;;10.84;99.58;97420.50;4987182;28;20031;-70
2021/04/29 06:55:58;;;;;;;3.15;2.70;;;;;;;10.98;99.52;97418.84;4987700;28;20428;-70
2021/04/29 06:58:24;;;;;;;3.67;2.63;;;;;;;10.83;99.76;97424.03;4992841;28;20722;-69
2021/04/29 07:00:50;;;;;;;2.88;2.40;;;;;;;10.99;99.63;97423.16;4988673;28;20026;-70
2021/04/29 07:03:15;;;;;;;3.42;2.50;;;;;;;11.40;99.83;97421.56;4988299;28;20034;-70
2021/04/29 07:05:41;;;;;;;3.70;2.55;;;;;;;11.44;99.44;97430.91;4988119;28;20065;-70
2021/04/29 07:08:09;;;;;;;3.10;2.40;;;;;;;12.06;99.83;97422.81;4985820;28;20053;-70
2021/04/29 07:10:34;;;;;;;3.88;2.40;;;;;;;12.08;99.92;97419.13;4981537;28;20058;-70
2021/04/29 07:13:01;;;;;;;3.95;2.50;;;;;;;12.19;99.30;97414.06;4989788;28;20100;-71
2021/04/29 07:15:26;;;;;;;3.83;2.40;;;;;;;12.25;99.31;97412.81;4988364;28;20030;-70
2021/04/29 07:18:00;;;;;;;3.53;2.20;;;;;;;12.26;99.25;97419.75;4987425;28;20049;-70
2021/04/29 07:20:26;;;;;;;2.67;2.00;;;;;;;12.19;99.08;97423.72;4986949;28;20354;-70
2021/04/29 07:22:52;;;;;;;3.72;2.42;;;;;;;12.04;99.01;97430.75;4986152;28;20045;-70
2021/04/29 07:25:18;;;;;;;4.15;2.22;;;;;;;12.00;98.64;97429.25;4985677;28;20029;-70
2021/04/29 07:27:43;;;;;;;3.45;2.13;;;;;;;13.21;98.10;97427.56;4992265;28;20030;-74
2021/04/29 07:30:09;;;;;;;2.90;2.00;;;;;;;13.99;82.79;97417.78;4992410;28;20098;-74
2021/04/29 07:32:37;;;;;;;3.25;2.15;;;;;;;13.29;80.47;97417.41;4992230;28;20049;-74
2021/04/29 07:35:03;;;;;;;3.58;2.03;;;;;;;13.05;80.92;97425.09;4991790;28;20030;-74
2021/04/29 07:37:29;;;;;;;3.03;2.08;;;;;;;12.73;81.07;97423.72;4991481;28;20039;-74
2021/04/29 07:39:54;;;;;;;5.22;2.28;;;;;;;12.74;81.39;97436.75;4991131;28;20037;-74
2021/04/29 07:42:20;;;;;;;5.82;2.58;;;;;;;12.98;80.29;97427.28;4993038;28;20101;-73
2021/04/29 07:44:45;;;;;;;3.80;2.38;;;;;;;12.92;80.46;97432.09;4992589;28;20022;-73
2021/04/29 07:47:10;;;;;;;3.90;2.42;;;;;;;12.98;78.53;97435.16;4993618;28;20690;-73
2021/04/29 07:49:38;;;;;;;4.43;2.60;;;;;;;13.12;78.73;97436.88;4992303;28;20084;-73
2021/04/29 07:52:04;;;;;;;4.47;2.50;;;;;;;13.57;70.59;97437.38;4980612;28;20378;-71
2021/04/29 07:54:31;;;;;;;3.53;2.42;;;;;;;13.64;68.19;97430.75;4983446;28;20563;-74
2021/04/29 07:56:57;;;;;;;6.22;2.40;;;;;;;13.76;69.93;97423.78;4992847;28;20026;-73
2021/04/29 07:59:25;;;;;;;4.35;2.40;;;;;;;13.99;69.16;97417.78;5002239;28;20022;-72
2021/04/29 08:01:52;;;;;;;3.17;2.40;;;;;;;14.41;68.50;97419.19;4992599;28;20018;-72
2021/04/29 08:04:20;;;;;;;3.40;2.30;;;;;;;14.40;67.49;97420.13;4992748;28;20026;-72
2021/04/29 08:06:45;;;;;;;3.60;2.30;;;;;;;13.95;70.25;97432.09;4991468;28;20030;-73
2021/04/29 08:09:11;;;;;;;4.00;2.42;;;;;;;14.19;69.67;97425.13;4989138;28;20034;-76
2021/04/29 08:11:36;;;;;;;3.50;2.30;;;;;;;13.62;68.56;97430.84;4990360;28;20053;-72
2021/04/29 08:14:02;;;;;;;3.92;2.65;;;;;;;13.46;72.43;97432.00;5008520;28;20134;-73
2021/04/29 08:16:27;;;;;;;6.57;2.75;;;;;;;13.49;71.01;97429.16;4989205;28;20083;-72
2021/04/29 08:18:53;;;;;;;4.10;2.97;;;;;;;13.99;69.21;97418.63;4989153;28;20047;-72
2021/04/29 08:21:19;;;;;;;4.80;2.75;;;;;;;14.81;61.91;97419.78;4992561;28;20053;-72
2021/04/29 08:23:44;;;;;;;5.13;3.33;;;;;;;14.97;59.36;97416.84;4991021;28;20023;-71
2021/04/29 08:26:10;;;;;;;4.70;3.08;;;;;;;15.87;59.01;97415.28;4990488;28;20037;-73
2021/04/29 08:28:38;;;;;;;3.63;2.95;;;;;;;16.05;57.12;97416.44;4992264;28;20372;-72
2021/04/29 08:31:03;;;;;;;4.88;3.03;;;;;;;16.34;52.33;97415.00;4991624;28;20057;-72
2021/04/29 08:33:29;;;;;;;4.75;3.28;;;;;;;16.14;52.54;97427.13;4991202;28;20058;-72
2021/04/29 08:35:56;;;;;;;5.35;3.20;;;;;;;15.62;52.77;97432.13;4989365;28;20499;-72
2021/04/29 08:38:22;;;;;;;3.95;2.97;;;;;;;15.73;52.75;97438.28;4988714;28;20184;-73
2021/04/29 08:40:47;;;;;;;5.20;3.00;;;;;;;15.93;54.17;97433.22;4989813;28;20473;-72
2021/04/29 08:43:13;;;;;;;5.20;2.80;;;;;;;16.83;50.82;97434.81;4990312;28;20551;-73
2021/04/29 08:45:44;;;;;;;5.22;3.08;;;;;;;16.84;49.99;97433.84;4988948;28;20034;-72
2021/04/29 08:48:10;;;;;;;3.95;2.70;;;;;;;16.43;50.26;97431.88;4990581;28;20427;-72
2021/04/29 08:50:38;;;;;;;5.10;3.33;;;;;;;16.71;49.99;97435.81;4986546;28;20089;-72
2021/04/29 08:53:06;;;;;;;3.90;2.90;;;;;;;17.14;49.43;97431.31;4986243;28;20065;-72
2021/04/29 08:55:36;;;;;;;4.28;2.80;;;;;;;16.53;50.39;97432.81;4986454;28;20026;-71
2021/04/29 08:58:01;;;;;;;4.55;2.90;;;;;;;17.11;50.16;97433.41;4987590;28;20505;-72
2021/04/29 09:00:29;;;;;;;3.92;2.88;;;;;;;17.78;47.88;97423.28;4984152;28;20030;-72
2021/04/29 09:02:55;;;;;;;4.22;3.08;;;;;;;18.31;46.98;97424.91;4984887;28;20084;-72
2021/04/29 09:05:32;;;;;;;4.95;3.38;;;;;;;18.61;44.16;97428.38;4987148;28;20023;-73
2021/04/29 09:08:00;;;;;;;5.72;3.33;;;;;;;18.78;44.42;97421.59;4991280;28;20026;-73
2021/04/29 09:10:35;;;;;;;6.70;3.22;;;;;;;18.78;43.66;97421.59;5005116;28;20031;-72
2021/04/29 09:13:12;;;;;;;3.85;3.10;;;;;;;19.30;42.76;97425.63;4993309;28;20049;-72
2021/04/29 09:15:39;;;;;;;4.55;3.22;;;;;;;18.83;42.05;97426.44;4981775;28;20093;-73
2021/04/29 09:18:13;;;;;;;4.10;3.22;;;;;;;18.18;43.74;97419.88;4995527;28;20042;-72
2021/04/29 09:21:05;;;;;;;4.97;3.00;;;;;;;17.65;46.70;97420.03;4987938;28;20049;-73
2021/04/29 09:23:34;;;;;;;4.88;3.03;;;;;;;16.87;48.51;97421.22;4987323;28;20034;-73
2021/04/29 09:26:04;;;;;;;5.07;3.20;;;;;;;16.26;50.92;97422.66;4979990;28;20039;-72
2021/04/29 09:28:34;;;;;;;8.27;3.60;;;;;;;15.86;50.96;97419.69;4988850;28;20388;-71
2021/04/29 09:31:01;;;;;;;4.10;3.20;;;;;;;15.63;51.40;97416.19;4985791;28;20121;-72
2021/04/29 09:33:32;;;;;;;;;;;;;;;15.40;52.59;97425.00;4990310;28;20476;-72
2021/04/29 09:35:58;;;;;;;6.75;3.72;;;;;;;15.23;54.19;97425.44;4989259;28;19957;-72
2021/04/29 09:38:34;;;;;;;9.00;3.65;;;;;;;15.03;54.77;97429.53;4988165;28;20058;-73
2021/04/29 09:41:00;;;;;;;4.28;3.20;;;;;;;14.49;57.48;97434.44;4986452;28;20026;-77
2021/04/29 09:43:26;;;;;;;5.30;3.30;;;;;;;14.26;58.79;97428.97;4989027;28;20030;-71
2021/04/29 09:46:00;;;;;;;5.78;3.42;;;;;;;13.88;60.99;97436.09;4982830;28;20026;-72
2021/04/29 09:48:37;;;;;;;5.43;3.20;;;;;;;13.58;63.73;97444.31;4987673;28;20124;-72
2021/04/29 09:51:03;;;;;;;;;;;;;;;13.17;65.52;97457.56;4990088;28;20073;-72
2021/04/29 09:53:40;;;;;;;5.60;3.70;;;;;;;12.86;66.65;97477.94;4989792;28;19914;-72
2021/04/29 09:56:10;;;;;;;6.37;4.03;;;;;;;12.64;68.82;97478.50;4985155;28;20044;-71
2021/04/29 09:58:36;;;;;;;5.18;3.92;;;;;;;12.47;70.39;97504.09;4987474;28;20444;-72
2021/04/29 10:01:05;;;;;;;7.82;4.10;;;;;;;12.09;73.55;97519.56;4987130;28;20135;-74
2021/04/29 10:03:31;;;;;;;7.50;4.60;;;;;;;11.61;77.29;97513.66;4985532;28;20022;-74
2021/04/29 10:05:57;;;;;;;6.70;4.72;;;;;;;11.42;78.66;97505.25;4979161;28;20030;-73
2021/04/29 10:08:25;;;;;;;6.93;4.38;;;;;;;11.39;77.13;97515.88;4983631;28;20041;-73
2021/04/29 10:10:54;;;;;;;6.95;4.72;;;;;;;11.52;77.82;97501.13;4983098;28;20246;-73
2021/04/29 10:13:24;;;;;;;6.75;4.50;;;;;;;11.73;77.71;97505.09;4983948;28;20473;-73
2021/04/29 10:15:50;;;;;;;7.18;4.50;;;;;;;12.08;76.26;97496.91;4988476;28;20105;-73
2021/04/29 10:18:16;;;;;;;7.13;4.93;;;;;;;12.54;77.46;97513.25;4984512;28;20089;-73
2021/04/29 10:20:47;;;;;;;5.80;4.88;;;;;;;12.59;76.64;97511.19;4987673;28;21222;-77
2021/04/29 10:23:17;;;;;;;8.02;5.00;;;;;;;12.30;78.31;97510.38;4984142;28;20084;-75
2021/04/29 10:25:55;;;;;;;7.00;5.85;;;;;;;11.87;79.20;97502.53;4982389;28;20044;-75
2021/04/29 10:28:32;;;;;;;;;;;;;;;11.32;80.66;97499.69;4985030;28;20496;-71
2021/04/29 10:30:58;;;;;;;9.98;5.38;;;;;;;11.63;83.46;97501.34;4985589;28;19936;-71
2021/04/29 10:33:24;;;;;;;6.60;4.80;;;;;;;12.04;84.40;97498.88;4991467;28;20392;-70
2021/04/29 10:35:56;;;;;;;7.03;4.72;;;;;;;12.30;86.85;97486.78;4992232;28;20026;-70
2021/04/29 10:38:32;;;;;;;8.23;5.03;;;;;;;12.63;88.60;97482.03;4992131;28;20030;-70
2021/04/29 10:41:00;;;;;;;5.45;4.50;;;;;;;12.99;89.12;97489.31;4978189;28;20154;-70
2021/04/29 10:43:39;;;;;;;8.48;4.60;;;;;;;14.10;89.09;97478.34;4988463;28;20034;-70
2021/04/29 10:46:08;;;;;;;6.38;5.00;;;;;;;14.45;85.87;97477.69;4992134;28;20033;-70
2021/04/29 10:48:49;;;;;;;9.60;5.25;;;;;;;14.62;86.80;97477.31;5006921;28;20258;-70
2021/04/29 10:51:15;;;;;;;8.10;5.03;;;;;;;13.60;86.76;97480.00;4991631;28;20461;-69
2021/04/29 10:53:40;;;;;;;7.55;4.43;;;;;;;13.98;88.72;97476.56;4992110;28;20049;-70
2021/04/29 10:56:11;;;;;;;7.55;4.03;;;;;;;14.23;88.39;97479.16;4991044;28;20034;-70
2021/04/29 10:58:37;;;;;;;7.57;4.30;;;;;;;14.67;87.14;97475.19;4991911;28;20121;-70
2021/04/29 11:01:12;;;;;;;6.35;4.13;;;;;;;14.74;87.74;97473.81;4991366;28;20101;-70
2021/04/29 11:03:46;;;;;;;7.43;4.20;;;;;;;14.51;87.16;97466.72;4990541;28;20056;-70
2021/04/29 11:06:17;;;;;;;6.97;4.35;;;;;;;14.61;87.50;97465.94;4991225;28;20107;-70
2021/04/29 11:08:49;;;;;;;5.47;4.10;;;;;;;14.84;86.36;97471.31;4990407;28;20038;-70
2021/04/29 11:11:24;;;;;;;5.28;4.00;;;;;;;15.16;83.83;97467.16;4990841;28;20165;-68
2021/04/29 11:14:12;;;;;;;6.25;3.97;;;;;;;14.75;69.83;97478.97;4991438;28;20117;-70
2021/04/29 11:16:55;;;;;;;7.00;4.47;;;;;;;14.02;72.88;97512.22;4993196;28;20343;-70
2021/04/29 11:19:46;;;;;;;5.13;3.08;;;;;;;13.30;62.59;97552.97;4992710;28;20034;-70
2021/04/29 11:22:19;;;;;;;5.38;2.97;;;;;;;13.22;61.34;97535.09;4982507;28;20080;-70
2021/04/29 11:24:49;;;;;;;4.30;3.20;;;;;;;12.52;64.77;97555.31;4991475;28;20113;-70
2021/04/29 11:27:21;;;;;;;4.38;3.10;;;;;;;12.94;63.15;97545.69;4991761;28;20105;-70
2021/04/29 11:29:47;;;;;;;4.82;2.92;;;;;;;12.79;63.81;97550.13;4990803;28;20041;-70
2021/04/29 11:32:12;;;;;;;12.60;3.05;;;;;;;12.72;64.02;97538.31;4990746;28;20030;-70
2021/04/29 11:34:46;;;;;;;5.90;3.10;;;;;;;12.59;63.88;97535.63;4991662;28;20037;-71
2021/04/29 11:37:13;;;;;;;6.07;2.90;;;;;;;12.20;64.32;97533.72;4990189;28;20088;-70
2021/04/29 11:39:39;;;;;;;3.85;2.85;;;;;;;12.03;64.31;97539.13;4990554;28;20056;-70